WETTERDATEN

GESTERN
Time Temp. Taup. r.Fe. Windrich Windstärke Windböe Druck 1h Prec. 24h Prec.
00:09 14.3 13.7 96 220 1.1 1.9 1019.3 0.0000 0.0000
00:19 14 13.4 96 221 1.4 1.9 1019.3 0.0000 0.0000
00:29 13.9 13.3 96 221 1.4 2.2 1019.4 0.0000 0.0000
00:39 13.8 13.3 97 216 1.1 1.9 1019.4 0.0000 0.0000
00:49 13.7 13.2 97 222 1.1 1.7 1019.6 0.0000 0.0000
00:59 13.6 13.1 97 225 1.1 1.7 1019.5 0.0000 0.0000
01:09 13.6 13.3 98 223 1.1 1.7 1019.5 0.0000 0.0000
01:20 13.6 13.3 98 242 1.1 2.8 1019.9 0.1010 0.1000
01:29 13.7 13.4 98 260 1.1 2.5 1019.8 0.1010 0.1000
01:39 13.7 13.4 98 220 1.1 2.2 1019.6 0.1010 0.1000
01:50 13.8 13.6 99 241 0.8 1.7 1019.6 0.1010 0.1000
02:00 13.8 13.6 99 232 0.6 1.1 1019.4 0.1010 0.1000
02:10 13.9 13.7 99 187 0.8 1.7 1019.4 0.1010 0.1000
02:19 14 13.8 99 171 1.1 1.9 1019.4 0.0000 0.1000
02:30 14 13.8 99 196 0.8 1.7 1019.2 0.0000 0.1000
02:40 14 13.8 99 204 0.6 1.4 1019.2 0.0000 0.1000
02:50 14.1 13.9 99 240 0.6 1.4 1019.3 0.0000 0.1000
03:00 14 13.8 99 249 0.6 1.1 1019.3 0.0000 0.1000
03:10 14 13.8 99 270 0.8 1.4 1019.3 0.0000 0.1000
03:20 14 13.8 99 222 0.6 1.4 1019.3 0.0000 0.1000
03:30 14 13.8 99 199 0.8 1.4 1019.3 0.0000 0.1000
03:41 14 13.8 99 203 0.8 1.9 1019.2 0.0000 0.1000
03:50 14 13.8 99 185 1.1 1.7 1019.2 0.0000 0.1000
04:00 13.9 13.7 99 204 0.8 1.4 1019.1 0.0000 0.1000
04:11 13.8 13.6 99 210 0.8 1.4 1019.1 0.1010 0.2000
04:21 13.7 13.5 99 223 0.8 1.4 1019.1 0.1010 0.2000
04:31 13.6 13.4 99 239 0.8 1.4 1019.2 0.1010 0.2000
04:40 13.5 13.3 99 226 0.8 1.7 1019.3 0.1010 0.2000
04:51 13.4 13.2 99 225 0.8 1.4 1019.1 0.1010 0.2000
05:01 13.3 13.1 99 210 0.8 1.7 1019 0.1010 0.2000
05:11 13.3 13.1 99 208 0.8 1.7 1019 0.0000 0.2000
05:21 13.2 13 99 215 0.8 1.7 1019.1 0.0000 0.2000
05:31 13.1 12.9 99 232 0.8 1.4 1019 0.0000 0.2000
05:41 13.1 12.9 99 231 0.8 1.4 1019.2 0.0000 0.2000
05:51 13 12.8 99 237 1.1 1.7 1019.2 0.0000 0.2000
06:02 13 12.8 99 233 0.8 1.7 1019.2 0.0000 0.2000
06:11 13.1 13.1 100 213 0.8 1.7 1019.3 0.0000 0.2000
06:21 13.4 13.4 100 211 0.8 1.4 1019.4 0.0000 0.2000
06:32 13.6 13.6 100 214 0.8 1.4 1019.3 0.0000 0.2000
06:42 13.9 13.9 100 210 0.6 1.1 1019.3 0.0000 0.2000
06:52 14.7 14.7 100 191 0.6 1.1 1019.2 0.0000 0.2000
07:01 15.9 15.9 100 196 0.3 0.6 1019.2 0.0000 0.2000
07:12 16.9 16.4 97 180 0.3 0.6 1018.9 0.0000 0.2000
07:22 17.5 16 91 75 0.6 1.1 1018.9 0.0000 0.2000
07:32 17.9 15.7 87 90 0.6 1.1 1018.8 0.0000 0.2000
07:42 18.3 15.7 85 90 0.6 1.1 1018.7 0.0000 0.2000
07:52 18.7 15.8 83 248 1.1 2.2 1018.7 0.0000 0.2000
08:02 18.5 15.2 81 293 0.6 1.1 1018.7 0.0000 0.2000
08:12 18.9 15.8 82 270 0.8 1.4 1018.7 0.0000 0.2000
08:23 19.1 15.6 80 14 0.3 1.1 1018.7 0.0000 0.2000
08:32 18.8 15.5 81 90 0.6 1.1 1018.7 0.0000 0.2000
08:42 19.1 16 82 90 0.3 1.1 1018.7 0.0000 0.2000
08:53 19.7 16.2 80 45 0.6 1.4 1018.6 0.0000 0.2000
09:03 19.8 16.1 79 56 0.8 1.7 1018.5 0.0000 0.2000
09:13 19.9 16.2 79 58 0.8 1.7 1018.5 0.0000 0.2000
09:22 20.1 16.3 79 34 0.8 1.7 1018.6 0.0000 0.2000
09:33 20.1 16.3 79 90 0.6 1.4 1018.7 0.0000 0.2000
09:43 20 16.2 79 45 0.8 1.7 1018.6 0.0000 0.2000
09:53 20.2 16.4 79 90 0.8 1.4 1018.6 0.0000 0.2000
10:03 20.3 16.1 77 46 0.8 2.2 1018.5 0.0000 0.2000
10:13 20.4 16.2 77 10 0.6 1.4 1018.4 0.0000 0.2000
10:23 20.5 15.9 75 90 0.6 1.4 1018.4 0.0000 0.2000
10:33 20.9 15.4 71 55 0.8 1.4 1018.2 0.0000 0.2000
10:44 21.1 14.7 67 45 0.8 2.2 1018.1 0.0000 0.2000
10:54 21.2 14.8 67 45 0.8 1.9 1018.1 0.0000 0.2000
11:03 21.4 14.8 66 42 0.8 1.4 1018.2 0.0000 0.2000
11:13 21.6 14.5 64 40 0.8 2.5 1018 0.0000 0.2000
11:24 21.5 14.9 66 33 0.8 1.7 1018.1 0.0000 0.2000
11:34 21.6 15.2 67 40 0.6 1.9 1018 0.0000 0.2000
11:43 21.6 15.2 67 42 0.8 3.1 1018 0.0000 0.2000
11:54 21.5 15.6 69 7 0.6 1.9 1017.9 0.0000 0.2000
12:04 21.7 15.8 69 51 0.6 1.4 1017.9 0.0000 0.2000
12:14 21.8 15.6 68 49 0.8 1.9 1017.7 0.0000 0.2000
12:24 21.9 15.3 66 25 0.8 1.9 1017.4 0.0000 0.2000
12:34 22 15.4 66 35 0.8 1.9 1017.3 0.0000 0.2000
12:44 22.1 15.2 65 16 1.1 2.5 1017.2 0.0000 0.2000
12:54 22.3 15.4 65 28 0.8 2.8 1017.1 0.0000 0.2000
13:05 22.4 14.8 62 3 0.8 2.5 1017.1 0.0000 0.2000
13:15 22.6 15.5 64 14 0.8 2.5 1017 0.0000 0.2000
13:24 22.7 15.3 63 15 0.8 1.7 1016.8 0.0000 0.2000
13:34 22.8 15.4 63 40 0.8 1.7 1016.7 0.0000 0.2000
13:45 23 15.3 62 2 0.8 1.9 1016.6 0.0000 0.2000
13:55 23.2 14.8 59 21 0.8 1.7 1016.5 0.0000 0.2000
14:04 23.4 15.2 60 31 0.6 1.4 1016.3 0.0000 0.2000
14:15 23.3 14.8 59 31 0.8 1.9 1016.4 0.0000 0.2000
14:25 23.5 15 59 45 0.8 2.5 1016.2 0.0000 0.2000
14:35 23.6 14.6 57 27 0.8 1.9 1016.2 0.0000 0.2000
14:45 23.9 15.4 59 47 0.6 1.9 1016 0.0000 0.2000
14:55 24 15.2 58 30 0.8 1.7 1016 0.0000 0.2000
15:05 24.1 15.1 57 50 0.6 1.9 1016 0.0000 0.2000
15:15 24.1 14.8 56 26 0.8 1.9 1016 0.0000 0.2000
15:26 24.1 14.5 55 34 0.6 1.1 1015.9 0.0000 0.2000
15:36 24.1 15.3 58 12 0.6 1.4 1015.8 0.0000 0.2000
15:45 24 15 57 16 1.1 2.8 1015.7 0.0000 0.2000
15:55 23.8 14.8 57 17 0.8 2.2 1015.6 0.0000 0.2000
16:06 23.8 15 58 23 0.6 1.7 1015.5 0.0000 0.2000
16:16 23.8 14.8 57 111 0.8 2.5 1015.6 0.0000 0.2000
16:26 24 15 57 45 0.6 1.1 1015.4 0.0000 0.2000
16:36 24 15 57 90 0.6 1.7 1015.5 0.0000 0.2000
16:46 23.9 14.3 55 27 0.8 1.9 1015.5 0.0000 0.2000
16:56 23.9 14.3 55 105 0.6 1.1 1015.5 0.0000 0.2000
17:06 24.1 14.5 55 90 0.6 1.1 1015.3 0.0000 0.2000
17:17 24.2 14.6 55 90 0.6 1.1 1015.3 0.0000 0.2000
17:27 24.3 14.7 55 68 0.6 1.1 1015 0.0000 0.2000
17:36 24.2 14.6 55 59 0.6 1.7 1015 0.0000 0.2000
17:47 24.2 14.6 55 45 0.6 0.8 1015.2 0.0000 0.2000
17:57 24 14.7 56 69 0.6 1.1 1014.9 0.0000 0.2000
18:07 23.9 14.6 56 90 0.6 2.2 1015 0.0000 0.2000
18:17 23.7 14.4 56 68 0.6 1.1 1015.2 0.0000 0.2000
18:27 23.5 14.8 58 21 0.6 1.7 1015.5 0.0000 0.2000
18:38 22.9 16 65 317 2.5 6.1 1015.9 0.3030 0.5000
18:48 20.5 16.3 77 250 2.2 4.4 1015.9 5.2520 5.5000
18:58 18.5 16.3 87 263 1.9 3.6 1016.2 5.4540 5.7000
19:03 18.1 16.3 89 152 2.5 8.3 1016.5 5.4540 5.7000
19:13 17.4 16.3 93 178 1.7 3.3 1016.5 5.5550 5.8000
19:23 17.2 16.6 96 178 2.5 5.3 1016.5 5.6560 5.9000
19:33 17 16.5 97 201 2.2 5.6 1016.7 5.5550 6.1000
19:44 16.9 16.6 98 241 1.4 2.5 1017 1.9190 7.4000
19:53 16.9 16.6 98 287 2.8 4.2 1017.4 1.9190 7.6000
20:03 16.8 16.5 98 274 2.5 5.3 1017.8 2.2220 7.9000
20:14 16.8 16.5 98 275 2.8 6.7 1018.1 2.5250 8.4000
20:24 16.6 16.3 98 304 3.1 6.9 1018.2 3.9390 9.9000
20:34 16.3 16 98 304 3.1 6.9 1018.4 4.2420 11.2000
20:43 16.1 15.8 98 291 2.2 2.2 1018.7 4.7470 12.2000
20:54 15.9 15.6 98 291 2.2 2.2 1018.7 5.1510 13.0000
21:04 15.8 15.5 98 291 2.2 2.2 1018.9 5.4540 13.5000
21:14 15.8 15.6 99 298 1.7 2.5 1019 4.8480 13.8000
21:24 15.8 15.6 99 310 1.7 2.5 1019.1 3.6360 14.1000
21:35 15.8 15.6 99 281 1.4 2.2 1019.2 2.6260 14.2000
21:44 15.8 15.6 99 302 1.1 2.2 1019.3 1.7170 14.3000
21:54 15.8 15.6 99 214 1.4 2.2 1019.3 1.2120 14.5000
22:05 15.8 15.6 99 192 1.4 1.9 1019.3 1.1110 14.8000
22:15 15.7 15.5 99 189 1.4 2.5 1019.2 1.1110 15.0000
22:25 15.6 15.4 99 181 1.4 2.5 1019.1 1.0100 15.2000
22:35 15.6 15.4 99 187 1.4 2.5 1019 1.0100 15.3000
22:45 15.5 15.3 99 175 1.9 3.3 1018.9 0.9090 15.3000
22:55 15.5 15.3 99 191 1.7 2.8 1018.9 0.6060 15.3000
23:05 15.5 15.3 99 194 1.7 2.5 1019 0.3030 15.3000
23:16 15.5 15.5 100 194 1.7 2.8 1018.9 0.2020 15.3000
23:25 15.5 15.5 100 195 1.4 2.2 1018.8 0.1010 15.3000
23:35 15.5 15.3 99 195 1.4 2.5 1018.9 0.0000 15.3000
23:45 15.5 15.3 99 228 1.4 2.2 1019.1 0.0000 15.3000
23:56 15.4 15.2 99 203 1.7 2.2 1018.9 0.0000

TAGESSTATISTIK

2021-08-03
TEMPERATUR
MITTEL
18.3
MAXIMUM
24.3
17:27
MINIMUM
13.0
05:51
LUFTDRUCK
MITTEL
1018.0
MAXIMUM
1019.9
01:20
MINIMUM
1014.9
17:57
TAUPUNKT
MITTEL
14.9
MAXIMUM
16.6
19:23
MINIMUM
12.8
05:51
FEUCHTIGKEIT
MITTEL
83
MAXIMUM
100
06:11
MINIMUM
55
15:26
WINDSTÄRKE
MITTEL
1.0
MAXIMUM
3.1
20:24
WINDBÖE
MITTEL
2.1
MAXIMUM
8.3
19:03
WINDRICHTUNG
VORHERRSCHENDE
NO
23.8%
N
9.1
NO
23.8
O
11.9
SO
0.7
S
17.5
SW
22.4
W
9.8
NW
4.9
NIEDERSCHLAG
REGEN STUNDE
5.7
REGEN TAG
15.3
TEMPERATUR (°C)
MINIMUM
13.0
MAXIMUM
24.3
MITTEL
18.3
LUFTDRUCK (hpa)
MINIMUM
1014.9
MAXIMUM
1019.9
MITTEL
1018.0
MESSGERÄT